Time;durP1;ratioP1;P1;durP2;ratioP2;P2;SDS_P1;SDS_P2;PMS_P1;PMS_P2;Temp;Humidity;BMP_temperature;BMP_pressure;BME280_temperature;BME280_humidity;BME280_pressure;Samples;Min_cycle;Max_cycle;Signal;HPM_P1;HPM_P2
2023/03/15 00:01:20;;;;;;;0.90;0.30;;;2.90;99.90;;;;;;5002472;28;20049;-81
2023/03/15 00:03:46;;;;;;;3.47;0.63;;;2.90;99.90;;;;;;4986782;28;20055;-81
2023/03/15 00:06:13;;;;;;;1.20;0.50;;;2.80;99.90;;;;;;5000636;28;20040;-81
2023/03/15 00:08:39;;;;;;;1.13;0.60;;;2.80;99.90;;;;;;4993713;28;20420;-80
2023/03/15 00:11:06;;;;;;;0.77;0.40;;;2.70;99.90;;;;;;5004601;28;20045;-81
2023/03/15 00:13:32;;;;;;;3.40;0.70;;;2.70;99.90;;;;;;4997429;28;20960;-81
2023/03/15 00:16:01;;;;;;;1.03;0.40;;;2.70;99.90;;;;;;5007499;28;20052;-79
2023/03/15 00:18:28;;;;;;;1.70;0.70;;;2.80;99.90;;;;;;4967020;28;20705;-81
2023/03/15 00:20:55;;;;;;;2.30;0.53;;;2.70;99.90;;;;;;4955211;28;20617;-80
2023/03/15 00:23:21;;;;;;;0.60;0.40;;;2.70;99.90;;;;;;4930756;28;20046;-78
2023/03/15 00:25:49;;;;;;;1.17;0.60;;;2.70;99.90;;;;;;4981489;28;20305;-79
2023/03/15 00:28:15;;;;;;;0.97;0.47;;;2.70;99.90;;;;;;4961152;28;20661;-79
2023/03/15 00:30:43;;;;;;;1.00;0.40;;;2.60;99.90;;;;;;4956959;28;20625;-80
2023/03/15 00:33:13;;;;;;;0.80;0.50;;;2.60;99.90;;;;;;4958832;28;20026;-78
2023/03/15 00:35:42;;;;;;;1.00;0.50;;;2.60;99.90;;;;;;4972947;28;20058;-79
2023/03/15 00:38:09;;;;;;;1.13;0.50;;;2.60;99.90;;;;;;4954070;28;20048;-79
2023/03/15 00:40:36;;;;;;;2.23;0.70;;;2.60;99.90;;;;;;4954347;28;20041;-78
2023/03/15 00:43:03;;;;;;;1.40;0.67;;;2.60;99.90;;;;;;4943067;28;20061;-78
2023/03/15 00:45:29;;;;;;;1.70;0.70;;;2.60;99.90;;;;;;4964877;28;20046;-78
2023/03/15 00:47:56;;;;;;;1.87;0.93;;;2.60;99.90;;;;;;4943958;28;20080;-78
2023/03/15 00:50:22;;;;;;;2.37;0.90;;;2.60;99.90;;;;;;4954101;28;20048;-78
2023/03/15 00:52:49;;;;;;;3.50;1.50;;;2.60;99.90;;;;;;4937908;28;20050;-79
2023/03/15 00:55:18;;;;;;;5.07;1.80;;;2.60;99.90;;;;;;4957976;28;20053;-78
2023/03/15 00:57:45;;;;;;;3.90;1.80;;;2.60;99.90;;;;;;4969439;28;20034;-78
2023/03/15 01:00:16;;;;;;;2.70;1.33;;;2.50;99.90;;;;;;4968336;28;20056;-78
2023/03/15 01:02:42;;;;;;;4.03;3.20;;;2.50;99.90;;;;;;4962534;28;20586;-78
2023/03/15 01:05:09;;;;;;;5.10;3.20;;;2.50;99.90;;;;;;4964770;28;20053;-78
2023/03/15 01:07:35;;;;;;;5.23;3.13;;;2.60;99.90;;;;;;4974874;28;20753;-78
2023/03/15 01:10:05;;;;;;;3.67;3.00;;;2.60;99.90;;;;;;4953500;28;20053;-78
2023/03/15 01:12:32;;;;;;;3.73;2.73;;;2.60;99.90;;;;;;4958881;28;20050;-78
2023/03/15 01:15:00;;;;;;;6.13;3.13;;;2.60;99.90;;;;;;4974233;28;20045;-78
2023/03/15 01:17:27;;;;;;;4.17;3.60;;;2.70;99.90;;;;;;4977958;28;20042;-77
2023/03/15 01:19:53;;;;;;;5.50;3.70;;;2.60;99.90;;;;;;4959059;28;20045;-78
2023/03/15 01:22:20;;;;;;;6.57;4.80;;;2.60;99.90;;;;;;4964524;28;20050;-77
2023/03/15 01:24:46;;;;;;;4.87;3.50;;;2.60;99.90;;;;;;4932105;28;20018;-78
2023/03/15 01:27:12;;;;;;;6.60;4.40;;;2.50;99.90;;;;;;4956460;28;20053;-78
2023/03/15 01:29:39;;;;;;;7.10;4.60;;;2.60;99.90;;;;;;4950797;28;20057;-79
2023/03/15 01:32:07;;;;;;;4.73;4.03;;;2.60;99.90;;;;;;4958013;28;20049;-78
2023/03/15 01:34:34;;;;;;;7.40;5.30;;;2.50;99.90;;;;;;4941321;28;20625;-77
2023/03/15 01:37:01;;;;;;;8.23;4.77;;;2.50;99.90;;;;;;4964596;28;20068;-78
2023/03/15 01:39:33;;;;;;;9.18;5.03;;;2.40;99.90;;;;;;4958096;28;20851;-78
2023/03/15 01:42:01;;;;;;;8.87;4.83;;;2.50;99.90;;;;;;4954793;28;20050;-77
2023/03/15 01:44:52;;;;;;;6.20;4.13;;;2.50;99.90;;;;;;4940829;28;20054;-78
2023/03/15 01:47:19;;;;;;;5.90;4.40;;;2.60;99.90;;;;;;4967184;28;22406;-77
2023/03/15 01:49:51;;;;;;;8.10;5.27;;;2.60;99.90;;;;;;4944109;28;20444;-78
2023/03/15 01:52:24;;;;;;;10.40;5.60;;;2.70;99.90;;;;;;4948572;28;20042;-77
2023/03/15 01:55:00;;;;;;;8.73;5.43;;;2.70;99.90;;;;;;4958675;28;20045;-78
2023/03/15 01:57:35;;;;;;;6.87;4.77;;;2.80;99.90;;;;;;4956931;28;20058;-78
2023/03/15 02:00:11;;;;;;;10.83;5.43;;;2.80;99.90;;;;;;4941270;28;20038;-77
2023/03/15 02:03:19;;;;;;;7.90;4.37;;;2.80;99.90;;;;;;4931897;28;20021;-77
2023/03/15 02:05:56;;;;;;;6.00;3.97;;;2.80;99.90;;;;;;4937605;28;21394;-78
2023/03/15 02:08:42;;;;;;;6.57;4.27;;;2.80;99.90;;;;;;4947390;28;20038;-79
2023/03/15 02:11:10;;;;;;;12.73;5.90;;;2.80;99.90;;;;;;4956424;28;20053;-78
2023/03/15 02:13:37;;;;;;;6.70;4.23;;;2.70;99.90;;;;;;4964306;28;20066;-77
2023/03/15 02:16:07;;;;;;;9.60;5.20;;;2.70;99.90;;;;;;4956485;28;20402;-77
2023/03/15 02:18:41;;;;;;;5.70;3.70;;;2.70;99.90;;;;;;4946690;28;20030;-78
2023/03/15 02:21:19;;;;;;;8.03;4.43;;;2.70;99.90;;;;;;4954285;28;20065;-78
2023/03/15 02:23:58;;;;;;;7.90;3.70;;;2.70;99.90;;;;;;4952630;28;20054;-77
2023/03/15 02:26:38;;;;;;;6.63;4.37;;;2.70;99.90;;;;;;4934010;28;20453;-77
2023/03/15 02:29:05;;;;;;;6.87;4.60;;;2.70;99.90;;;;;;4918779;28;20713;-78
2023/03/15 02:31:36;;;;;;;8.87;5.10;;;2.70;99.90;;;;;;4960077;28;20046;-78
2023/03/15 02:34:06;;;;;;;7.30;4.87;;;2.70;99.90;;;;;;4937668;28;20050;-78
2023/03/15 02:36:34;;;;;;;8.27;5.50;;;2.60;99.90;;;;;;4937373;28;20042;-78
2023/03/15 02:39:02;;;;;;;10.13;7.00;;;2.60;99.90;;;;;;4945863;28;20050;-77
2023/03/15 02:41:39;;;;;;;8.43;6.37;;;2.60;99.90;;;;;;4937441;28;20050;-78
2023/03/15 02:44:23;;;;;;;9.30;7.07;;;2.60;99.90;;;;;;4954447;28;20052;-78
2023/03/15 02:46:53;;;;;;;10.53;7.13;;;2.60;99.90;;;;;;4961128;28;20042;-77
2023/03/15 02:49:24;;;;;;;10.73;8.30;;;2.50;99.90;;;;;;4955835;28;20502;-78
2023/03/15 02:51:51;;;;;;;10.10;7.37;;;2.50;99.90;;;;;;4954945;28;20045;-78
2023/03/15 02:54:17;;;;;;;11.03;7.83;;;2.50;99.90;;;;;;4949258;28;23260;-78
2023/03/15 02:56:44;;;;;;;12.80;8.87;;;2.40;99.90;;;;;;4951445;28;20050;-77
2023/03/15 02:59:11;;;;;;;11.20;8.83;;;2.40;99.90;;;;;;4932022;28;20395;-77
2023/03/15 03:01:38;;;;;;;10.90;8.80;;;2.40;99.90;;;;;;4952779;28;20045;-77
2023/03/15 03:04:05;;;;;;;15.80;10.17;;;2.30;99.90;;;;;;4961428;28;20042;-77
2023/03/15 03:06:31;;;;;;;13.63;10.87;;;2.30;99.90;;;;;;4962944;28;20049;-76
2023/03/15 03:09:02;;;;;;;12.27;10.20;;;2.30;99.90;;;;;;4934340;28;20100;-76
2023/03/15 03:11:29;;;;;;;14.83;11.10;;;2.20;99.90;;;;;;4937565;28;20050;-76
2023/03/15 03:13:56;;;;;;;13.57;10.17;;;2.10;99.90;;;;;;4954115;28;21243;-77
2023/03/15 03:16:23;;;;;;;13.63;9.13;;;2.10;99.90;;;;;;4953234;28;20046;-77
2023/03/15 03:18:50;;;;;;;10.10;8.30;;;2.10;99.90;;;;;;4920175;28;20046;-76
2023/03/15 03:21:17;;;;;;;13.03;9.00;;;2.00;99.90;;;;;;4975346;28;20046;-77
2023/03/15 03:23:45;;;;;;;9.90;8.03;;;2.00;99.90;;;;;;4966804;28;20050;-77
2023/03/15 03:26:17;;;;;;;9.57;7.57;;;1.90;99.90;;;;;;4948514;28;20046;-77
2023/03/15 03:28:46;;;;;;;10.47;8.23;;;1.90;99.90;;;;;;4912394;28;20039;-76
2023/03/15 03:31:22;;;;;;;10.60;8.60;;;1.90;99.90;;;;;;4929718;28;20072;-77
2023/03/15 03:33:51;;;;;;;10.07;8.00;;;1.80;99.90;;;;;;4970274;28;20042;-77
2023/03/15 03:36:18;;;;;;;11.60;8.67;;;1.80;99.90;;;;;;4954134;28;20057;-78
2023/03/15 03:38:45;;;;;;;14.30;9.20;;;1.80;99.90;;;;;;4950747;28;20030;-77
2023/03/15 03:41:13;;;;;;;11.90;8.93;;;1.70;99.90;;;;;;4946236;28;20043;-77
2023/03/15 03:43:40;;;;;;;9.30;6.83;;;1.70;99.90;;;;;;4939529;28;20073;-77
2023/03/15 03:46:08;;;;;;;10.37;7.90;;;1.70;99.90;;;;;;4958162;28;20046;-77
2023/03/15 03:48:38;;;;;;;12.60;7.83;;;1.60;99.90;;;;;;4949562;28;20046;-79
2023/03/15 03:51:06;;;;;;;11.63;7.70;;;1.60;99.90;;;;;;4955324;28;20045;-78
2023/03/15 03:53:32;;;;;;;10.57;7.07;;;1.60;99.90;;;;;;4937245;28;20041;-77
2023/03/15 03:56:02;;;;;;;12.73;9.17;;;1.60;99.90;;;;;;4957659;28;20564;-77
2023/03/15 03:58:29;;;;;;;11.60;9.00;;;1.60;99.90;;;;;;4940533;28;20049;-78
2023/03/15 04:01:00;;;;;;;11.13;8.47;;;1.60;99.90;;;;;;4942370;28;20504;-77
2023/03/15 04:03:30;;;;;;;11.73;7.97;;;1.60;99.90;;;;;;4958303;28;20050;-77
2023/03/15 04:06:06;;;;;;;9.57;7.00;;;1.50;99.90;;;;;;4930999;28;20497;-77
2023/03/15 04:08:37;;;;;;;13.83;8.73;;;1.50;99.90;;;;;;4950547;28;23402;-77
2023/03/15 04:11:04;;;;;;;16.50;8.07;;;1.50;99.90;;;;;;4954289;28;20057;-77
2023/03/15 04:13:34;;;;;;;11.60;7.77;;;1.50;99.90;;;;;;4939515;28;20061;-78
2023/03/15 04:16:02;;;;;;;11.80;8.07;;;1.40;99.90;;;;;;4961583;28;20543;-77
2023/03/15 04:18:33;;;;;;;11.60;8.20;;;1.40;99.90;;;;;;4943206;28;20034;-78
2023/03/15 04:20:59;;;;;;;11.97;8.20;;;1.40;99.90;;;;;;4959017;28;20049;-78
2023/03/15 04:23:25;;;;;;;12.83;7.80;;;1.40;99.90;;;;;;4955624;28;20053;-78
2023/03/15 04:26:18;;;;;;;10.35;7.88;;;1.40;99.90;;;;;;4954779;28;20404;-78
2023/03/15 04:29:22;;;;;;;9.77;6.20;;;1.40;99.90;;;;;;4941325;28;20401;-78
2023/03/15 04:32:07;;;;;;;9.50;5.87;;;1.40;99.90;;;;;;4940943;28;20038;-79
2023/03/15 04:35:03;;;;;;;8.87;6.43;;;1.30;99.90;;;;;;4914801;28;20054;-78
2023/03/15 04:37:41;;;;;;;14.37;9.10;;;1.40;99.90;;;;;;4961993;28;20042;-78
2023/03/15 04:40:29;;;;;;;14.13;8.47;;;1.50;99.90;;;;;;4930024;28;20602;-78
2023/03/15 04:43:08;;;;;;;14.77;8.30;;;1.60;99.90;;;;;;4970055;28;20060;-78
2023/03/15 04:45:52;;;;;;;11.70;8.07;;;1.60;99.90;;;;;;4958167;28;20047;-77
2023/03/15 04:48:30;;;;;;;11.67;7.37;;;1.70;99.90;;;;;;4941034;28;20038;-78
2023/03/15 04:51:08;;;;;;;12.57;8.00;;;1.70;99.90;;;;;;4960843;28;20504;-78
2023/03/15 04:53:40;;;;;;;15.32;8.80;;;1.70;99.90;;;;;;4947763;28;20029;-78
2023/03/15 04:56:27;;;;;;;13.47;9.47;;;1.60;99.90;;;;;;4945312;28;20057;-78
2023/03/15 04:59:22;;;;;;;10.57;6.77;;;1.60;99.90;;;;;;4947953;28;20697;-78
2023/03/15 05:02:27;;;;;;;13.20;8.27;;;1.60;99.90;;;;;;4875525;29;20052;-78
2023/03/15 05:05:02;;;;;;;15.07;10.17;;;1.50;99.90;;;;;;4860730;29;20060;-78
2023/03/15 05:07:47;;;;;;;17.67;10.70;;;1.50;99.90;;;;;;4938142;28;20049;-78
2023/03/15 05:10:39;;;;;;;18.25;11.35;;;1.50;99.90;;;;;;4973418;28;20069;-78
2023/03/15 05:13:26;;;;;;;17.63;11.83;;;1.50;99.90;;;;;;4960131;28;20038;-79
2023/03/15 05:16:30;;;;;;;23.60;14.20;;;1.40;99.90;;;;;;4912517;28;20069;-79
2023/03/15 05:19:14;;;;;;;20.73;13.10;;;1.40;99.90;;;;;;4896383;28;20619;-78
2023/03/15 05:22:24;;;;;;;22.07;13.93;;;1.30;99.90;;;;;;4926761;28;20494;-79
2023/03/15 05:25:16;;;;;;;18.33;12.57;;;1.30;99.90;;;;;;4921346;28;20054;-79
2023/03/15 05:27:57;;;;;;;17.17;11.60;;;1.20;99.90;;;;;;4952804;28;20053;-79
2023/03/15 05:30:32;;;;;;;19.10;11.77;;;1.10;99.90;;;;;;4946059;28;20477;-78
2023/03/15 05:33:03;;;;;;;19.23;11.80;;;1.10;99.90;;;;;;4962721;28;21921;-79
2023/03/15 05:35:46;;;;;;;19.37;10.90;;;1.10;99.90;;;;;;4945202;28;20050;-79
2023/03/15 05:38:30;;;;;;;15.57;10.33;;;1.00;99.90;;;;;;4927887;28;20033;-78
2023/03/15 05:41:16;;;;;;;16.47;11.30;;;1.00;99.90;;;;;;4958732;28;20052;-80
2023/03/15 05:44:02;;;;;;;16.90;10.50;;;0.90;99.90;;;;;;4963131;28;20042;-78
2023/03/15 05:46:39;;;;;;;15.93;11.20;;;0.90;99.90;;;;;;4962890;28;20050;-78
2023/03/15 05:49:16;;;;;;;14.30;9.57;;;0.90;99.90;;;;;;4953084;28;20049;-77
2023/03/15 05:51:53;;;;;;;15.40;9.80;;;0.90;99.90;;;;;;4955928;28;20049;-78
2023/03/15 05:54:38;;;;;;;15.43;9.73;;;0.80;99.90;;;;;;4957926;28;20856;-79
2023/03/15 05:57:24;;;;;;;17.00;11.23;;;0.80;99.90;;;;;;4955058;28;20077;-77
2023/03/15 06:00:15;;;;;;;16.47;10.57;;;0.80;99.90;;;;;;4958910;28;20524;-77
2023/03/15 06:02:42;;;;;;;16.27;10.80;;;0.80;99.90;;;;;;4962382;28;20045;-78
2023/03/15 06:05:37;;;;;;;20.20;12.40;;;0.80;99.90;;;;;;4956490;28;20499;-77
2023/03/15 06:08:07;;;;;;;21.40;11.90;;;0.80;99.90;;;;;;4950711;28;20670;-77
2023/03/15 06:10:37;;;;;;;17.07;11.20;;;0.80;99.90;;;;;;4953410;28;20041;-79
2023/03/15 06:13:07;;;;;;;18.20;10.77;;;0.80;99.90;;;;;;4954378;28;20045;-78
2023/03/15 06:15:34;;;;;;;14.87;8.50;;;0.80;99.90;;;;;;4943885;28;20052;-79
2023/03/15 06:18:01;;;;;;;15.90;9.13;;;0.80;99.90;;;;;;4946959;28;20448;-79
2023/03/15 06:20:28;;;;;;;15.57;8.27;;;0.80;99.90;;;;;;4947060;28;20378;-79
2023/03/15 06:22:55;;;;;;;14.07;7.60;;;0.80;99.90;;;;;;4967678;28;22880;-78
2023/03/15 06:25:30;;;;;;;23.83;10.60;;;0.90;99.90;;;;;;4976536;28;20041;-79
2023/03/15 06:27:57;;;;;;;24.00;11.73;;;1.00;99.90;;;;;;4957396;28;20037;-79
2023/03/15 06:30:25;;;;;;;22.40;10.83;;;1.10;99.90;;;;;;4973804;28;21196;-79
2023/03/15 06:32:55;;;;;;;24.47;11.10;;;1.10;99.90;;;;;;4948297;28;20033;-78
2023/03/15 06:35:21;;;;;;;23.77;12.63;;;1.20;99.90;;;;;;4963087;28;20041;-78
2023/03/15 06:37:48;;;;;;;26.43;12.57;;;1.40;99.90;;;;;;4965807;28;20029;-78
2023/03/15 06:40:15;;;;;;;27.17;12.97;;;1.60;99.90;;;;;;4943991;28;20046;-78
2023/03/15 06:42:43;;;;;;;22.67;11.80;;;1.70;99.90;;;;;;4951678;28;20053;-77
2023/03/15 06:45:12;;;;;;;26.13;13.93;;;1.70;99.90;;;;;;4951279;28;20046;-78
2023/03/15 06:47:38;;;;;;;23.30;13.13;;;1.70;99.90;;;;;;4937458;28;20413;-77
2023/03/15 06:50:05;;;;;;;20.53;11.93;;;1.80;99.90;;;;;;4947553;28;20038;-77
2023/03/15 06:52:32;;;;;;;20.87;11.53;;;1.70;99.90;;;;;;4958633;28;20046;-76
2023/03/15 06:54:58;;;;;;;20.20;11.77;;;1.80;99.90;;;;;;4947684;28;20452;-77
2023/03/15 06:57:25;;;;;;;20.90;10.33;;;1.80;99.90;;;;;;4945101;28;20513;-78
2023/03/15 06:59:52;;;;;;;20.10;11.67;;;1.90;99.90;;;;;;4946879;28;20034;-77
2023/03/15 07:02:19;;;;;;;17.57;10.70;;;2.00;99.90;;;;;;4955023;28;20046;-78
2023/03/15 07:04:46;;;;;;;19.50;9.77;;;2.10;99.90;;;;;;4948987;28;20062;-78
2023/03/15 07:07:13;;;;;;;17.37;9.20;;;2.10;99.90;;;;;;4957634;28;20023;-77
2023/03/15 07:09:40;;;;;;;17.70;9.33;;;2.30;99.90;;;;;;4953229;28;20061;-77
2023/03/15 07:12:08;;;;;;;16.57;10.00;;;2.30;99.90;;;;;;4962817;28;20038;-78
2023/03/15 07:14:35;;;;;;;15.07;9.03;;;2.40;99.90;;;;;;4961909;28;20038;-78
2023/03/15 07:17:01;;;;;;;17.40;8.60;;;2.50;99.90;;;;;;4954608;28;20097;-77
2023/03/15 07:19:27;;;;;;;13.50;8.20;;;2.70;99.90;;;;;;4931679;28;20104;-77
2023/03/15 07:21:54;;;;;;;12.50;6.73;;;2.80;99.90;;;;;;4936919;28;20046;-78
2023/03/15 07:24:20;;;;;;;11.70;6.37;;;2.90;99.90;;;;;;4954021;28;20053;-79
2023/03/15 07:26:46;;;;;;;9.67;5.70;;;3.00;99.90;;;;;;4959092;28;20030;-79
2023/03/15 07:29:12;;;;;;;14.40;6.70;;;3.10;99.90;;;;;;4924779;28;20049;-77
2023/03/15 07:31:39;;;;;;;9.37;6.10;;;3.20;99.90;;;;;;4962846;28;21829;-78
2023/03/15 07:34:05;;;;;;;9.53;5.00;;;3.20;99.90;;;;;;4970221;28;20033;-78
2023/03/15 07:36:32;;;;;;;9.40;4.90;;;3.40;99.90;;;;;;4939356;28;20695;-77
2023/03/15 07:38:58;;;;;;;7.70;4.43;;;3.40;99.90;;;;;;4929441;28;20057;-77
2023/03/15 07:41:24;;;;;;;9.57;4.83;;;3.50;99.90;;;;;;4960688;28;20076;-78
2023/03/15 07:44:00;;;;;;;8.53;4.17;;;3.60;99.90;;;;;;4962078;28;20488;-79
2023/03/15 07:46:26;;;;;;;9.73;4.07;;;3.70;99.90;;;;;;4965608;28;20054;-78
2023/03/15 07:48:53;;;;;;;10.30;4.57;;;3.80;99.90;;;;;;4956000;28;20045;-77
2023/03/15 07:51:19;;;;;;;10.90;3.80;;;3.90;99.90;;;;;;4955288;28;20040;-78
2023/03/15 07:53:45;;;;;;;8.70;3.23;;;3.90;99.90;;;;;;4941590;28;21748;-79
2023/03/15 07:56:12;;;;;;;8.23;2.97;;;4.00;99.90;;;;;;4940435;28;20058;-79
2023/03/15 07:58:38;;;;;;;6.20;2.20;;;4.10;99.90;;;;;;4937175;28;20037;-79
2023/03/15 08:01:04;;;;;;;8.60;2.20;;;4.30;99.90;;;;;;4941507;28;21305;-78
2023/03/15 08:03:31;;;;;;;9.80;1.83;;;4.40;99.90;;;;;;4965772;28;20511;-78
2023/03/15 08:05:57;;;;;;;6.40;1.30;;;4.50;99.90;;;;;;4964338;28;20049;-78
2023/03/15 08:08:25;;;;;;;5.90;1.35;;;4.50;99.90;;;;;;4956118;28;20029;-77
2023/03/15 08:10:51;;;;;;;4.82;1.02;;;4.60;99.90;;;;;;4955436;28;22313;-79
2023/03/15 08:13:17;;;;;;;4.50;1.73;;;4.70;99.90;;;;;;4958699;28;20037;-77
2023/03/15 08:15:45;;;;;;;3.53;1.20;;;4.80;99.90;;;;;;4973834;28;20037;-79
2023/03/15 08:18:12;;;;;;;6.78;1.23;;;4.90;99.90;;;;;;4951334;28;20049;-78
2023/03/15 08:20:39;;;;;;;9.18;1.40;;;5.00;99.90;;;;;;4960036;28;22030;-78
2023/03/15 08:23:05;;;;;;;5.60;1.00;;;5.10;99.90;;;;;;4966141;28;20057;-79
2023/03/15 08:25:31;;;;;;;3.97;0.70;;;5.20;99.90;;;;;;4976451;28;20053;-79
2023/03/15 08:27:58;;;;;;;7.10;1.20;;;5.30;99.90;;;;;;4952429;28;20806;-78
2023/03/15 08:30:24;;;;;;;3.10;0.70;;;5.30;99.90;;;;;;4968547;28;20045;-79
2023/03/15 08:32:51;;;;;;;5.10;0.80;;;5.40;99.90;;;;;;4954895;28;20045;-78
2023/03/15 08:35:20;;;;;;;3.30;0.50;;;5.50;99.90;;;;;;4957847;28;20034;-78
2023/03/15 08:37:46;;;;;;;4.93;0.70;;;5.60;99.90;;;;;;4962346;28;20053;-78
2023/03/15 08:40:24;;;;;;;7.03;0.70;;;5.60;99.90;;;;;;4949222;28;20045;-80
2023/03/15 08:42:52;;;;;;;5.90;0.60;;;5.70;99.90;;;;;;4976643;28;20073;-78
2023/03/15 08:45:19;;;;;;;5.18;0.50;;;5.70;99.90;;;;;;4956955;28;20053;-79
2023/03/15 08:47:45;;;;;;;3.45;0.50;;;5.70;99.90;;;;;;4956882;28;20038;-80
2023/03/15 08:50:14;;;;;;;4.47;0.50;;;5.80;99.90;;;;;;4935152;28;20037;-79
2023/03/15 08:52:41;;;;;;;4.82;0.50;;;5.90;99.90;;;;;;4972492;28;21450;-79
2023/03/15 08:55:08;;;;;;;3.40;0.50;;;5.90;99.90;;;;;;4974784;28;20052;-79
2023/03/15 08:57:34;;;;;;;11.02;1.05;;;6.00;99.90;;;;;;4965863;28;20077;-79
2023/03/15 09:00:14;;;;;;;18.05;2.33;;;6.10;99.90;;;;;;4953927;28;20049;-80
2023/03/15 09:02:40;;;;;;;27.60;3.95;;;6.20;99.90;;;;;;4970629;28;20431;-79
2023/03/15 09:05:09;;;;;;;11.80;1.70;;;6.30;99.90;;;;;;4954113;28;20045;-78
2023/03/15 09:07:35;;;;;;;12.90;2.05;;;6.30;99.90;;;;;;4958707;28;20044;-79
2023/03/15 09:10:03;;;;;;;18.95;3.80;;;6.40;99.90;;;;;;4947107;28;20370;-78
2023/03/15 09:12:29;;;;;;;13.73;1.85;;;6.40;99.90;;;;;;4941614;28;20042;-79
2023/03/15 09:14:56;;;;;;;7.78;0.85;;;6.50;99.90;;;;;;4964425;28;20523;-80
2023/03/15 09:17:22;;;;;;;8.07;1.08;;;6.60;99.90;;;;;;4959809;28;20045;-79
2023/03/15 09:19:48;;;;;;;19.00;2.78;;;6.60;99.90;;;;;;4962329;28;20042;-80
2023/03/15 09:22:15;;;;;;;13.90;2.50;;;6.60;99.90;;;;;;4967607;28;20049;-78
2023/03/15 09:24:41;;;;;;;18.52;1.98;;;6.70;99.90;;;;;;4954181;28;20054;-79
2023/03/15 09:27:07;;;;;;;6.28;0.98;;;6.80;99.90;;;;;;4969655;28;20049;-80
2023/03/15 09:29:34;;;;;;;7.03;0.70;;;6.90;99.90;;;;;;4964211;28;20046;-78
2023/03/15 09:32:00;;;;;;;4.45;0.45;;;6.90;99.90;;;;;;4963700;28;20409;-78
2023/03/15 09:34:27;;;;;;;4.60;0.70;;;7.00;99.90;;;;;;4988244;28;20053;-77
2023/03/15 09:36:53;;;;;;;6.00;1.05;;;7.00;99.90;;;;;;4975494;28;20569;-78
2023/03/15 09:39:21;;;;;;;4.28;0.45;;;7.10;99.90;;;;;;4934075;28;20037;-77
2023/03/15 09:41:51;;;;;;;8.40;0.98;;;7.20;99.90;;;;;;4973287;28;20046;-78
2023/03/15 09:44:30;;;;;;;3.28;0.50;;;7.20;99.90;;;;;;4973978;28;20057;-78
2023/03/15 09:47:04;;;;;;;5.10;0.52;;;7.30;99.90;;;;;;4957274;28;20074;-79
2023/03/15 09:49:44;;;;;;;6.22;0.50;;;7.30;99.90;;;;;;4955795;28;20041;-78
2023/03/15 09:52:38;;;;;;;4.07;0.30;;;7.50;99.90;;;;;;4962728;28;20049;-79
2023/03/15 09:55:19;;;;;;;4.00;0.40;;;7.60;99.90;;;;;;4975423;28;20041;-78
2023/03/15 09:57:55;;;;;;;4.57;0.40;;;7.70;99.90;;;;;;4942896;28;20244;-80
2023/03/15 10:00:32;;;;;;;5.05;0.40;;;7.80;99.90;;;;;;4939538;28;20037;-79
2023/03/15 10:03:02;;;;;;;6.10;0.50;;;7.90;99.90;;;;;;4957294;28;20030;-80
2023/03/15 10:05:37;;;;;;;9.63;0.60;;;7.90;99.90;;;;;;4977918;28;20058;-78
2023/03/15 10:08:13;;;;;;;3.22;0.80;;;8.00;99.90;;;;;;4963503;28;20042;-80
2023/03/15 10:10:59;;;;;;;4.57;0.50;;;8.10;99.90;;;;;;4946497;28;21494;-78
2023/03/15 10:13:47;;;;;;;5.60;0.75;;;8.20;99.90;;;;;;4957430;28;20046;-79
2023/03/15 10:16:31;;;;;;;8.30;1.33;;;8.30;99.90;;;;;;4959466;28;20042;-79
2023/03/15 10:19:13;;;;;;;6.45;0.70;;;8.40;99.90;;;;;;4949836;28;20038;-80
2023/03/15 10:21:58;;;;;;;6.68;0.82;;;8.70;99.90;;;;;;4961519;28;20898;-80
2023/03/15 10:24:53;;;;;;;7.18;0.93;;;9.00;99.90;;;;;;4983427;28;20033;-80
2023/03/15 10:27:25;;;;;;;5.43;1.05;;;9.50;99.90;;;;;;4957701;28;20045;-80
2023/03/15 10:29:55;;;;;;;3.15;0.75;;;10.00;99.90;;;;;;4949664;28;20854;-80
2023/03/15 10:32:29;;;;;;;3.20;0.60;;;10.30;99.90;;;;;;4941073;28;20030;-80
2023/03/15 10:34:57;;;;;;;2.78;0.40;;;10.70;99.90;;;;;;4944423;28;20151;-79
2023/03/15 10:37:24;;;;;;;6.13;0.50;;;11.00;99.90;;;;;;4927105;28;21175;-81
2023/03/15 10:39:58;;;;;;;3.22;0.30;;;11.40;99.90;;;;;;4952221;28;20049;-80
2023/03/15 10:42:30;;;;;;;5.95;0.45;;;11.80;99.90;;;;;;4959942;28;20062;-80
2023/03/15 10:44:57;;;;;;;;;;;12.20;99.90;;;;;;4955529;28;20042;-78
2023/03/15 10:47:25;;;;;;;3.88;0.60;;;12.40;99.90;;;;;;4950278;28;19910;-80
2023/03/15 10:49:57;;;;;;;3.83;0.50;;;12.50;99.90;;;;;;4945614;28;20042;-79
2023/03/15 10:52:40;;;;;;;3.88;0.50;;;12.90;99.90;;;;;;4954074;28;20050;-79
2023/03/15 10:55:13;;;;;;;2.80;0.40;;;13.40;99.90;;;;;;4953886;28;20054;-80
2023/03/15 10:57:51;;;;;;;2.78;0.43;;;13.90;99.90;;;;;;4958280;28;20406;-81
2023/03/15 11:00:31;;;;;;;5.07;0.65;;;14.50;99.90;;;;;;4941498;28;20046;-80
2023/03/15 11:03:15;;;;;;;4.15;0.77;;;15.00;99.90;;;;;;4955774;28;20046;-80
2023/03/15 11:05:50;;;;;;;2.08;0.50;;;15.50;99.90;;;;;;4956070;28;20042;-80
2023/03/15 11:08:19;;;;;;;3.33;0.43;;;15.80;99.90;;;;;;4949959;28;20051;-81
2023/03/15 11:10:55;;;;;;;2.17;0.40;;;16.00;99.90;;;;;;4939962;28;21427;-82
2023/03/15 11:13:27;;;;;;;3.10;0.52;;;16.20;99.90;;;;;;4958010;28;20681;-81
2023/03/15 11:16:11;;;;;;;1.90;0.40;;;16.30;99.90;;;;;;4948297;28;20508;-78
2023/03/15 11:18:52;;;;;;;4.88;0.60;;;16.10;99.90;;;;;;4940694;28;23130;-81
2023/03/15 11:21:21;;;;;;;3.05;0.35;;;15.30;99.90;;;;;;4955881;28;20034;-80
2023/03/15 11:23:50;;;;;;;5.60;0.60;;;14.70;99.90;;;;;;4959438;28;20046;-78
2023/03/15 11:26:21;;;;;;;2.03;0.50;;;14.30;99.90;;;;;;4954957;28;20058;-78
2023/03/15 11:28:52;;;;;;;3.13;0.47;;;13.80;99.90;;;;;;4946989;28;20043;-79
2023/03/15 11:31:20;;;;;;;4.35;0.50;;;14.00;99.90;;;;;;4957031;28;20054;-79
2023/03/15 11:34:05;;;;;;;3.42;0.40;;;14.40;99.90;;;;;;4963359;28;20061;-78
2023/03/15 11:36:35;;;;;;;2.90;0.40;;;15.00;99.90;;;;;;4962293;28;20126;-78
2023/03/15 11:39:03;;;;;;;3.92;0.40;;;15.50;99.90;;;;;;4950074;28;20046;-79
2023/03/15 11:41:41;;;;;;;2.80;0.80;;;15.90;99.90;;;;;;4962236;28;20057;-78
2023/03/15 11:44:29;;;;;;;3.90;0.60;;;16.10;99.90;;;;;;4973913;28;20476;-79
2023/03/15 11:47:17;;;;;;;1.60;0.47;;;16.00;98.70;;;;;;4942803;28;20050;-79
2023/03/15 11:49:56;;;;;;;1.35;0.30;;;15.90;99.30;;;;;;4970125;28;20355;-81
2023/03/15 11:52:25;;;;;;;2.08;0.40;;;16.00;98.50;;;;;;4979690;28;20840;-79
2023/03/15 11:55:00;;;;;;;3.33;0.55;;;16.30;97.30;;;;;;4960954;28;20042;-81
2023/03/15 11:57:43;;;;;;;2.60;0.43;;;15.90;95.80;;;;;;4968661;28;20037;-79
2023/03/15 12:00:33;;;;;;;2.63;0.30;;;15.20;95.30;;;;;;4969616;28;20045;-79
2023/03/15 12:03:23;;;;;;;2.33;0.40;;;15.00;95.70;;;;;;4958991;28;20046;-81
2023/03/15 12:05:57;;;;;;;3.72;0.40;;;15.80;94.90;;;;;;4974785;28;20050;-80
2023/03/15 12:08:51;;;;;;;3.03;0.55;;;16.50;93.70;;;;;;4962245;28;20045;-81
2023/03/15 12:11:21;;;;;;;2.50;0.35;;;17.00;92.00;;;;;;4971558;28;20393;-79
2023/03/15 12:13:52;;;;;;;2.53;0.40;;;17.40;90.10;;;;;;4975056;28;20049;-80
2023/03/15 12:16:28;;;;;;;1.45;0.30;;;17.70;86.90;;;;;;4957901;28;20041;-77
2023/03/15 12:19:08;;;;;;;1.33;0.30;;;18.30;87.40;;;;;;4953276;28;20520;-78
2023/03/15 12:21:42;;;;;;;3.90;0.60;;;18.80;83.70;;;;;;4972893;28;20050;-81
2023/03/15 12:24:22;;;;;;;3.90;0.38;;;19.30;81.20;;;;;;4956988;28;20045;-81
2023/03/15 12:26:57;;;;;;;4.35;0.55;;;19.80;78.80;;;;;;4962430;28;20034;-80
2023/03/15 12:29:27;;;;;;;1.10;0.30;;;20.20;75.80;;;;;;4956666;28;20029;-80
2023/03/15 12:32:02;;;;;;;2.95;0.68;;;20.30;72.70;;;;;;4943206;28;20840;-80
2023/03/15 12:34:48;;;;;;;2.78;0.40;;;20.50;70.50;;;;;;4945942;28;20026;-81
2023/03/15 12:37:20;;;;;;;4.82;0.50;;;20.70;67.40;;;;;;4959266;28;20042;-80
2023/03/15 12:39:46;;;;;;;1.97;0.40;;;20.80;65.80;;;;;;4948655;28;20041;-81
2023/03/15 12:42:31;;;;;;;2.08;0.38;;;21.10;67.10;;;;;;4953869;28;20058;-79
2023/03/15 12:45:35;;;;;;;2.83;0.50;;;21.40;63.60;;;;;;4960750;28;20051;-78
2023/03/15 12:48:01;;;;;;;3.35;0.32;;;21.60;64.00;;;;;;4910897;28;20760;-78
2023/03/15 12:50:42;;;;;;;2.05;0.40;;;21.80;62.80;;;;;;4949871;28;20027;-77
2023/03/15 12:53:14;;;;;;;2.70;0.50;;;22.00;62.50;;;;;;4954205;28;20035;-76
2023/03/15 12:55:42;;;;;;;3.13;0.60;;;22.10;59.60;;;;;;4949364;28;20046;-76
2023/03/15 12:58:14;;;;;;;4.80;0.70;;;22.10;59.80;;;;;;4948655;28;20361;-76
2023/03/15 13:00:43;;;;;;;2.55;0.60;;;22.40;58.40;;;;;;4953363;28;20042;-79
2023/03/15 13:03:20;;;;;;;1.35;0.40;;;22.60;58.40;;;;;;4942319;28;20058;-76
2023/03/15 13:06:13;;;;;;;3.08;0.40;;;22.90;57.80;;;;;;4955722;28;20070;-78
2023/03/15 13:09:05;;;;;;;;;;;23.00;55.10;;;;;;4943755;28;20041;-75
2023/03/15 13:11:40;;;;;;;2.28;0.40;;;23.00;55.30;;;;;;4940841;28;20380;-75
2023/03/15 13:14:15;;;;;;;3.92;0.47;;;23.10;54.40;;;;;;4951993;28;20046;-76
2023/03/15 13:16:58;;;;;;;3.20;0.40;;;23.10;52.40;;;;;;4939598;28;20046;-77
2023/03/15 13:19:27;;;;;;;2.88;0.50;;;23.10;52.60;;;;;;4953203;28;20042;-77